createdAt,value
2022-11-23T00:00:46.059Z,16.03
2022-11-23T00:03:15.291Z,15.73
2022-11-23T00:05:42.661Z,15.30
2022-11-23T00:08:09.996Z,15.47
2022-11-23T00:10:37.594Z,13.60
2022-11-23T00:13:04.896Z,13.90
2022-11-23T00:15:32.529Z,14.53
2022-11-23T00:18:00.654Z,15.60
2022-11-23T00:20:27.958Z,14.57
2022-11-23T00:22:55.282Z,16.77
2022-11-23T00:25:22.914Z,15.17
2022-11-23T00:27:50.283Z,14.93
2022-11-23T00:30:17.758Z,14.80
2022-11-23T00:32:45.349Z,14.77
2022-11-23T00:35:12.648Z,14.93
2022-11-23T00:37:39.961Z,13.97
2022-11-23T00:40:08.127Z,13.30
2022-11-23T00:42:38.276Z,14.13
2022-11-23T00:45:06.245Z,14.27
2022-11-23T00:47:33.803Z,13.70
2022-11-23T00:50:01.123Z,14.33
2022-11-23T00:52:28.519Z,14.30
2022-11-23T00:54:56.168Z,13.73
2022-11-23T00:57:23.510Z,15.10
2022-11-23T00:59:50.863Z,15.23
2022-11-23T01:02:18.452Z,14.23
2022-11-23T01:04:45.781Z,13.93
2022-11-23T01:07:13.163Z,13.43
2022-11-23T01:09:40.804Z,12.87
2022-11-23T01:12:08.098Z,15.03
2022-11-23T01:14:35.436Z,12.27
2022-11-23T01:17:05.125Z,12.70
2022-11-23T01:19:34.575Z,12.87
2022-11-23T01:22:02.059Z,13.93
2022-11-23T01:24:29.962Z,12.77
2022-11-23T01:26:57.366Z,12.90
2022-11-23T01:29:24.743Z,12.07
2022-11-23T01:31:52.365Z,13.33
2022-11-23T01:34:19.724Z,12.60
2022-11-23T01:36:47.046Z,11.80
2022-11-23T01:39:14.651Z,12.83
2022-11-23T01:41:42.876Z,12.77
2022-11-23T01:44:30.388Z,11.83
2022-11-23T01:47:02.789Z,11.40
2022-11-23T01:49:33.674Z,13.33
2022-11-23T01:52:07.420Z,12.30
2022-11-23T01:54:37.832Z,12.03
2022-11-23T01:57:11.104Z,11.87
2022-11-23T01:59:38.485Z,11.60
2022-11-23T02:02:06.795Z,12.63
2022-11-23T02:04:36.450Z,12.00
2022-11-23T02:07:03.989Z,12.00
2022-11-23T02:09:32.539Z,11.50
2022-11-23T02:12:01.198Z,11.80
2022-11-23T02:14:28.842Z,14.53
2022-11-23T02:16:58.793Z,11.37
2022-11-23T02:19:32.456Z,12.40
2022-11-23T02:22:00.348Z,10.97
2022-11-23T02:24:30.956Z,12.43
2022-11-23T02:26:58.312Z,12.60
2022-11-23T02:29:27.376Z,11.07
2022-11-23T02:31:54.736Z,13.43
2022-11-23T02:34:24.400Z,12.00
2022-11-23T02:36:54.080Z,13.33
2022-11-23T02:39:22.606Z,13.47
2022-11-23T02:41:56.175Z,13.73
2022-11-23T02:44:42.087Z,12.17
2022-11-23T02:47:09.484Z,12.18
2022-11-23T02:49:40.304Z,12.27
2022-11-23T02:52:07.887Z,12.67
2022-11-23T02:54:35.304Z,11.03
2022-11-23T02:57:03.076Z,11.37
2022-11-23T02:59:32.684Z,11.07
2022-11-23T03:02:00.986Z,13.60
2022-11-23T03:04:30.010Z,11.57
2022-11-23T03:06:57.369Z,10.30
2022-11-23T03:09:26.273Z,11.23
2022-11-23T03:11:54.357Z,10.37
2022-11-23T03:14:21.885Z,10.37
2022-11-23T03:16:49.784Z,10.20
2022-11-23T03:19:17.454Z,11.07
2022-11-23T03:21:44.816Z,11.50
2022-11-23T03:24:12.140Z,10.03
2022-11-23T03:26:39.785Z,11.00
2022-11-23T03:29:07.500Z,11.83
2022-11-23T03:31:35.171Z,10.63
2022-11-23T03:34:02.867Z,11.17
2022-11-23T03:36:30.759Z,12.23
2022-11-23T03:38:58.093Z,10.87
2022-11-23T03:41:26.049Z,10.97
2022-11-23T03:43:53.501Z,10.43
2022-11-23T03:46:20.868Z,10.57
2022-11-23T03:48:48.450Z,10.13
2022-11-23T03:51:15.784Z,11.03
2022-11-23T03:53:43.198Z,9.27
2022-11-23T03:56:10.885Z,10.50
2022-11-23T03:58:39.018Z,9.63
2022-11-23T04:01:07.730Z,10.07
2022-11-23T04:03:35.631Z,10.53
2022-11-23T04:06:04.080Z,9.53
2022-11-23T04:08:33.490Z,9.70
2022-11-23T04:11:01.221Z,10.57
2022-11-23T04:13:29.902Z,10.53
2022-11-23T04:15:57.320Z,10.00
2022-11-23T04:18:24.996Z,10.77
2022-11-23T04:20:52.728Z,9.50
2022-11-23T04:23:20.256Z,10.30
2022-11-23T04:25:48.352Z,10.50
2022-11-23T04:28:15.725Z,9.80
2022-11-23T04:30:43.655Z,10.33
2022-11-23T04:33:11.402Z,10.93
2022-11-23T04:35:39.072Z,9.43
2022-11-23T04:38:07.106Z,9.03
2022-11-23T04:40:34.894Z,10.57
2022-11-23T04:43:02.635Z,9.60
2022-11-23T04:45:30.214Z,9.53
2022-11-23T04:47:58.557Z,9.30
2022-11-23T04:50:26.105Z,9.27
2022-11-23T04:52:53.691Z,8.20
2022-11-23T04:55:21.662Z,9.43
2022-11-23T04:57:49.440Z,8.97
2022-11-23T05:00:17.524Z,8.00
2022-11-23T05:02:45.231Z,9.20
2022-11-23T05:05:14.533Z,8.60
2022-11-23T05:07:41.902Z,8.20
2022-11-23T05:10:09.990Z,7.67
2022-11-23T05:12:37.540Z,8.13
2022-11-23T05:15:05.465Z,8.43
2022-11-23T05:17:34.555Z,8.70
2022-11-23T05:20:02.308Z,8.17
2022-11-23T05:22:30.787Z,9.13
2022-11-23T05:24:58.711Z,8.83
2022-11-23T05:27:26.379Z,7.97
2022-11-23T05:29:54.616Z,9.17
2022-11-23T05:32:22.320Z,6.77
2022-11-23T05:34:50.060Z,8.23
2022-11-23T05:37:17.825Z,8.03
2022-11-23T05:39:46.567Z,8.60
2022-11-23T05:42:14.091Z,8.13
2022-11-23T05:44:41.731Z,7.10
2022-11-23T05:47:11.289Z,8.37
2022-11-23T05:49:38.756Z,7.10
2022-11-23T05:52:06.233Z,7.53
2022-11-23T05:54:33.915Z,8.17
2022-11-23T05:57:01.444Z,7.53
2022-11-23T05:59:29.109Z,7.37
2022-11-23T06:01:57.673Z,7.60
2022-11-23T06:04:25.704Z,6.90
2022-11-23T06:06:54.682Z,7.77
2022-11-23T06:09:22.012Z,8.07
2022-11-23T06:11:49.920Z,8.00
2022-11-23T06:14:17.570Z,9.83
2022-11-23T06:16:45.235Z,8.80
2022-11-23T06:19:13.400Z,7.83
2022-11-23T06:21:48.988Z,6.97
2022-11-23T06:24:18.747Z,7.33
2022-11-23T06:26:47.125Z,7.70
2022-11-23T06:29:14.721Z,7.20
2022-11-23T06:31:42.414Z,7.97
2022-11-23T06:34:10.148Z,8.17
2022-11-23T06:36:37.503Z,7.70
2022-11-23T06:39:05.154Z,9.20
2022-11-23T06:41:32.825Z,8.30
2022-11-23T06:44:00.947Z,8.87
2022-11-23T06:46:29.576Z,8.80
2022-11-23T06:48:56.956Z,8.37
2022-11-23T06:51:24.290Z,8.27
2022-11-23T06:53:52.054Z,8.87
2022-11-23T06:56:19.525Z,8.30
2022-11-23T06:58:47.019Z,8.27
2022-11-23T07:01:15.861Z,8.50
2022-11-23T07:03:43.465Z,8.70
2022-11-23T07:06:12.751Z,8.80
2022-11-23T07:08:43.436Z,7.97
2022-11-23T07:11:12.670Z,7.20
2022-11-23T07:13:40.272Z,8.20
2022-11-23T07:16:07.858Z,7.43
2022-11-23T07:18:35.205Z,7.70
2022-11-23T07:21:02.972Z,7.33
2022-11-23T07:23:30.465Z,7.70
2022-11-23T07:25:57.790Z,8.20
2022-11-23T07:28:29.584Z,7.70
2022-11-23T07:30:57.420Z,8.23
2022-11-23T07:33:25.095Z,8.60
2022-11-23T07:35:52.497Z,7.50
2022-11-23T07:38:21.111Z,7.60
2022-11-23T07:40:50.301Z,7.77
2022-11-23T07:43:18.989Z,7.37
2022-11-23T07:45:48.715Z,7.10
2022-11-23T07:48:16.666Z,7.67
2022-11-23T07:50:43.981Z,7.53
2022-11-23T07:53:11.729Z,7.57
2022-11-23T07:55:39.052Z,7.33
2022-11-23T07:58:06.559Z,7.67
2022-11-23T08:00:34.160Z,7.10
2022-11-23T08:03:26.828Z,7.13
2022-11-23T08:05:49.102Z,6.67
2022-11-23T08:08:16.780Z,7.07
2022-11-23T08:10:47.299Z,7.83
2022-11-23T08:13:20.048Z,8.00
2022-11-23T08:15:53.315Z,8.17
2022-11-23T08:18:21.848Z,7.20
2022-11-23T08:20:49.216Z,7.30
2022-11-23T08:23:16.584Z,7.10
2022-11-23T08:25:44.168Z,6.63
2022-11-23T08:28:11.897Z,6.53
2022-11-23T08:30:39.359Z,6.10
2022-11-23T08:33:06.975Z,6.67
2022-11-23T08:35:35.247Z,7.30
2022-11-23T08:38:03.104Z,7.30
2022-11-23T08:40:30.783Z,6.63
2022-11-23T08:42:58.162Z,6.77
2022-11-23T08:45:25.522Z,6.23
2022-11-23T08:47:53.218Z,7.17
2022-11-23T08:50:20.711Z,7.00
2022-11-23T08:52:48.033Z,6.80
2022-11-23T08:55:15.743Z,6.30
2022-11-23T08:57:43.109Z,7.40
2022-11-23T09:00:10.764Z,7.00
2022-11-23T09:02:38.387Z,7.73
2022-11-23T09:05:07.545Z,7.07
2022-11-23T09:07:34.972Z,7.10
2022-11-23T09:10:02.556Z,7.17
2022-11-23T09:12:29.893Z,6.90
2022-11-23T09:14:57.313Z,7.33
2022-11-23T09:17:24.889Z,8.13
2022-11-23T09:19:52.208Z,7.00
2022-11-23T09:22:19.515Z,6.50
2022-11-23T09:24:47.179Z,6.47
2022-11-23T09:27:14.525Z,6.83
2022-11-23T09:29:41.859Z,6.63
2022-11-23T09:32:09.486Z,7.73
2022-11-23T09:34:36.836Z,6.80
2022-11-23T09:37:04.177Z,6.30
2022-11-23T09:39:31.780Z,6.60
2022-11-23T09:42:13.437Z,6.60
2022-11-23T09:44:52.216Z,5.83
2022-11-23T09:47:25.939Z,6.80
2022-11-23T09:50:09.232Z,6.20
2022-11-23T09:52:36.918Z,6.27
2022-11-23T09:55:13.940Z,6.40
2022-11-23T10:00:12.710Z,6.53
2022-11-23T10:02:40.504Z,6.33
2022-11-23T10:05:07.855Z,5.77
2022-11-23T10:08:34.082Z,5.43
2022-11-23T10:11:07.801Z,7.13
2022-11-23T10:13:43.135Z,6.77
2022-11-23T10:16:32.473Z,7.43
2022-11-23T10:19:42.037Z,6.10
2022-11-23T10:22:26.618Z,6.80
2022-11-23T10:24:54.081Z,6.37
2022-11-23T10:27:23.571Z,5.83
2022-11-23T10:29:54.041Z,5.90
2022-11-23T10:32:32.640Z,5.60
2022-11-23T10:35:27.465Z,5.20
2022-11-23T10:38:18.143Z,5.90
2022-11-23T10:41:10.141Z,9.73
2022-11-23T10:44:07.059Z,5.83
2022-11-23T10:46:34.285Z,6.83
2022-11-23T10:49:20.826Z,6.40
2022-11-23T10:51:49.077Z,5.85
2022-11-23T10:54:31.329Z,5.63
2022-11-23T10:56:59.947Z,5.47
2022-11-23T10:59:38.030Z,5.30
2022-11-23T11:02:05.319Z,5.53
2022-11-23T11:04:33.377Z,6.13
2022-11-23T11:07:30.137Z,6.03
2022-11-23T11:09:59.799Z,6.30
2022-11-23T11:12:28.210Z,5.70
2022-11-23T11:15:16.152Z,5.87
2022-11-23T11:17:43.732Z,6.80
2022-11-23T11:20:31.786Z,7.33
2022-11-23T11:23:00.849Z,8.07
2022-11-23T11:25:32.090Z,6.93
2022-11-23T11:27:59.717Z,5.83
2022-11-23T11:30:32.188Z,6.03
2022-11-23T11:33:20.361Z,6.20
2022-11-23T11:35:49.464Z,5.53
2022-11-23T11:38:29.873Z,5.83
2022-11-23T11:40:58.757Z,5.63
2022-11-23T11:43:39.460Z,5.37
2022-11-23T11:46:36.097Z,8.00
2022-11-23T11:51:58.096Z,6.50
2022-11-23T11:54:46.602Z,6.80
2022-11-23T11:57:19.163Z,6.00
2022-11-23T11:59:52.916Z,6.67
2022-11-23T12:02:39.964Z,7.07
2022-11-23T12:05:12.967Z,7.27
2022-11-23T12:07:47.684Z,6.97
2022-11-23T12:10:21.895Z,6.17
2022-11-23T12:12:49.282Z,6.47
2022-11-23T12:15:47.948Z,6.13
2022-11-23T12:18:29.790Z,7.47
2022-11-23T12:21:04.463Z,6.80
2022-11-23T12:23:56.537Z,5.60
2022-11-23T12:26:46.496Z,7.30
2022-11-23T12:29:40.090Z,9.40
2022-11-23T12:32:26.698Z,9.13
2022-11-23T12:35:01.882Z,8.82
2022-11-23T12:37:58.307Z,6.67
2022-11-23T12:43:36.770Z,8.93
2022-11-23T12:46:25.865Z,9.20
2022-11-23T12:49:11.723Z,9.77
2022-11-23T12:51:51.482Z,7.72
2022-11-23T12:54:56.776Z,7.93
2022-11-23T12:57:26.430Z,7.73
2022-11-23T13:00:08.564Z,8.50
2022-11-23T13:03:10.272Z,8.80
2022-11-23T13:06:20.503Z,7.07
2022-11-23T13:09:37.211Z,7.67
2022-11-23T13:12:08.679Z,7.63
2022-11-23T13:14:44.539Z,7.70
2022-11-23T13:17:25.811Z,8.77
2022-11-23T13:20:11.956Z,8.03
2022-11-23T13:22:39.742Z,8.93
2022-11-23T13:25:09.994Z,9.77
2022-11-23T13:27:52.151Z,9.67
2022-11-23T13:30:59.334Z,8.63
2022-11-23T13:33:31.589Z,8.80
2022-11-23T13:36:09.204Z,8.30
2022-11-23T13:38:43.443Z,8.93
2022-11-23T13:42:01.903Z,9.17
2022-11-23T13:44:30.982Z,7.43
2022-11-23T13:47:15.924Z,9.47
2022-11-23T13:50:28.133Z,5.47
2022-11-23T13:52:55.689Z,6.53
2022-11-23T13:55:35.774Z,6.87
2022-11-23T13:58:24.840Z,6.50
2022-11-23T14:00:53.595Z,6.33
2022-11-23T14:03:52.130Z,6.90
2022-11-23T14:06:41.269Z,6.50
2022-11-23T14:09:08.777Z,6.77
2022-11-23T14:11:50.458Z,7.93
2022-11-23T14:14:20.275Z,7.80
2022-11-23T14:17:23.816Z,7.80
2022-11-23T14:20:01.320Z,8.80
2022-11-23T14:22:58.122Z,8.03
2022-11-23T14:25:53.578Z,9.23
2022-11-23T14:28:52.078Z,11.30
2022-11-23T14:31:25.039Z,7.43
2022-11-23T14:34:14.205Z,9.40
2022-11-23T14:36:43.865Z,11.97
2022-11-23T14:39:27.976Z,12.30
2022-11-23T14:41:58.553Z,8.67
2022-11-23T14:44:27.164Z,8.27
2022-11-23T14:47:01.720Z,8.33
2022-11-23T14:49:29.733Z,9.43
2022-11-23T14:51:57.131Z,10.93
2022-11-23T14:54:26.252Z,12.57
2022-11-23T14:57:00.601Z,12.77
2022-11-23T14:59:29.870Z,10.50
2022-11-23T15:02:02.074Z,8.37
2022-11-23T15:04:34.844Z,9.03
2022-11-23T15:07:14.803Z,8.70
2022-11-23T15:09:53.363Z,9.87
2022-11-23T15:12:23.534Z,10.83
2022-11-23T15:14:51.681Z,11.87
2022-11-23T15:17:20.709Z,13.33
2022-11-23T15:20:11.893Z,12.07
2022-11-23T15:22:40.521Z,12.07
2022-11-23T15:25:08.628Z,11.33
2022-11-23T15:27:38.716Z,10.53
2022-11-23T15:30:20.178Z,8.67
2022-11-23T15:33:05.610Z,14.50
2022-11-23T15:35:34.445Z,17.77
2022-11-23T15:38:02.726Z,15.83
2022-11-23T15:40:37.209Z,10.10
2022-11-23T15:43:04.814Z,11.63
2022-11-23T15:45:44.406Z,8.53
2022-11-23T15:48:14.690Z,8.40
2022-11-23T15:50:55.792Z,7.97
2022-11-23T15:53:49.251Z,9.00
2022-11-23T15:56:29.914Z,8.40
2022-11-23T15:58:58.876Z,7.83
2022-11-23T16:01:26.376Z,8.30
2022-11-23T16:04:04.804Z,8.33
2022-11-23T16:06:32.130Z,8.43
2022-11-23T16:08:59.713Z,7.97
2022-11-23T16:11:34.801Z,9.20
2022-11-23T16:14:18.627Z,7.73
2022-11-23T16:16:47.578Z,8.13
2022-11-23T16:19:24.297Z,8.20
2022-11-23T16:21:57.787Z,8.00
2022-11-23T16:26:55.317Z,10.13
2022-11-23T16:29:24.680Z,9.63
2022-11-23T16:31:56.973Z,11.93
2022-11-23T16:34:24.381Z,10.57
2022-11-23T16:36:52.965Z,13.03
2022-11-23T16:39:20.310Z,11.90
2022-11-23T16:41:47.701Z,12.17
2022-11-23T16:44:15.279Z,12.83
2022-11-23T16:46:44.093Z,14.37
2022-11-23T16:49:16.075Z,14.77
2022-11-23T16:51:43.665Z,13.77
2022-11-23T16:54:14.030Z,14.33
2022-11-23T16:56:42.722Z,15.33
2022-11-23T16:59:18.428Z,14.23
2022-11-23T17:01:50.292Z,15.50
2022-11-23T17:04:20.372Z,14.20
2022-11-23T17:06:47.744Z,16.93
2022-11-23T17:09:15.208Z,15.23
2022-11-23T17:11:44.915Z,16.37
2022-11-23T17:14:18.805Z,16.07
2022-11-23T17:16:47.393Z,17.03
2022-11-23T17:19:19.083Z,17.03
2022-11-23T17:21:46.861Z,16.63
2022-11-23T17:24:14.312Z,16.70
2022-11-23T17:26:46.021Z,18.13
2022-11-23T17:29:17.787Z,17.57
2022-11-23T17:31:45.964Z,18.17
2022-11-23T17:34:13.994Z,17.53
2022-11-23T17:36:44.534Z,17.83
2022-11-23T17:39:20.217Z,18.37
2022-11-23T17:41:48.541Z,21.77
2022-11-23T17:44:16.308Z,23.77
2022-11-23T17:46:44.154Z,24.20
2022-11-23T17:49:12.929Z,22.37
2022-11-23T17:51:40.342Z,24.03
2022-11-23T17:54:07.712Z,23.43
2022-11-23T17:56:35.305Z,24.87
2022-11-23T17:59:02.664Z,21.20
2022-11-23T18:01:30.237Z,19.20
2022-11-23T18:04:00.920Z,21.33
2022-11-23T18:06:29.248Z,20.77
2022-11-23T18:08:56.790Z,20.77
2022-11-23T18:11:24.730Z,19.73
2022-11-23T18:13:52.486Z,18.63
2022-11-23T18:16:20.068Z,19.37
2022-11-23T18:18:47.827Z,19.97
2022-11-23T18:21:15.172Z,21.47
2022-11-23T18:23:42.653Z,20.90
2022-11-23T18:26:14.860Z,20.37
2022-11-23T18:28:42.202Z,20.37
2022-11-23T18:31:10.009Z,17.73
2022-11-23T18:33:37.531Z,18.40
2022-11-23T18:36:05.908Z,19.60
2022-11-23T18:38:33.937Z,19.13
2022-11-23T18:41:01.275Z,16.03
2022-11-23T18:43:28.648Z,14.50
2022-11-23T18:45:56.344Z,14.97
2022-11-23T18:48:23.776Z,14.73
2022-11-23T18:50:51.608Z,16.73
2022-11-23T18:53:19.223Z,16.43
2022-11-23T18:55:46.576Z,16.27
2022-11-23T18:58:13.884Z,17.53
2022-11-23T19:00:41.694Z,14.53
2022-11-23T19:03:09.763Z,12.60
2022-11-23T19:05:37.106Z,15.37
2022-11-23T19:08:07.023Z,13.77
2022-11-23T19:10:36.252Z,13.77
2022-11-23T19:13:05.781Z,12.93
2022-11-23T19:15:33.867Z,14.00
2022-11-23T19:18:01.377Z,12.67
2022-11-23T19:20:29.282Z,10.63
2022-11-23T19:22:56.864Z,10.83
2022-11-23T19:25:24.931Z,9.87
2022-11-23T19:27:53.022Z,11.17
2022-11-23T19:30:20.657Z,11.07
2022-11-23T19:32:47.999Z,9.80
2022-11-23T19:35:15.360Z,10.43
2022-11-23T19:37:42.992Z,10.00
2022-11-23T19:40:12.643Z,9.87
2022-11-23T19:42:41.337Z,9.23
2022-11-23T19:45:09.297Z,9.83
2022-11-23T19:47:36.642Z,10.93
2022-11-23T19:50:04.287Z,10.97
2022-11-23T19:52:55.356Z,12.53
2022-11-23T19:55:19.238Z,12.53
2022-11-23T19:57:46.834Z,13.30
2022-11-23T20:00:14.674Z,12.53
2022-11-23T20:02:42.268Z,12.57
2022-11-23T20:05:09.632Z,12.77
2022-11-23T20:07:37.063Z,11.97
2022-11-23T20:10:05.033Z,11.97
2022-11-23T20:12:33.019Z,11.67
2022-11-23T20:15:00.347Z,11.90
2022-11-23T20:17:27.967Z,12.40
2022-11-23T20:19:55.346Z,12.70
2022-11-23T20:22:22.689Z,13.10
2022-11-23T20:24:52.260Z,14.70
2022-11-23T20:27:19.619Z,12.63
2022-11-23T20:29:46.946Z,16.20
2022-11-23T20:32:14.672Z,15.33
2022-11-23T20:34:41.989Z,18.00
2022-11-23T20:37:09.333Z,18.23
2022-11-23T20:39:36.939Z,19.87
2022-11-23T20:42:04.324Z,23.43
2022-11-23T20:44:34.104Z,20.83
2022-11-23T20:47:03.264Z,21.13
2022-11-23T20:49:31.525Z,18.70
2022-11-23T20:51:59.477Z,19.37
2022-11-23T20:54:27.182Z,19.30
2022-11-23T20:56:54.679Z,18.53
2022-11-23T20:59:23.761Z,18.23
2022-11-23T21:01:51.821Z,16.57
2022-11-23T21:04:19.169Z,17.63
2022-11-23T21:06:46.522Z,19.07
2022-11-23T21:09:14.155Z,19.00
2022-11-23T21:12:00.089Z,18.57
2022-11-23T21:14:28.373Z,17.58
2022-11-23T21:16:58.253Z,18.50
2022-11-23T21:19:27.379Z,19.23
2022-11-23T21:21:55.103Z,18.87
2022-11-23T21:24:22.562Z,18.90
2022-11-23T21:26:49.887Z,19.83
2022-11-23T21:29:17.660Z,19.30
2022-11-23T21:31:45.795Z,18.97
2022-11-23T21:34:23.769Z,18.77
2022-11-23T21:36:51.718Z,17.77
2022-11-23T21:39:19.204Z,18.10
2022-11-23T21:41:47.467Z,18.63
2022-11-23T21:44:15.068Z,17.90
2022-11-23T21:46:42.583Z,17.63
2022-11-23T21:49:10.556Z,17.00
2022-11-23T21:51:38.323Z,18.67
2022-11-23T21:54:07.289Z,17.13
2022-11-23T21:56:34.674Z,18.13
2022-11-23T21:59:02.239Z,17.77
2022-11-23T22:01:30.885Z,16.47
2022-11-23T22:04:00.658Z,17.40
2022-11-23T22:06:28.991Z,17.43
2022-11-23T22:08:56.836Z,16.20
2022-11-23T22:11:28.618Z,18.43
2022-11-23T22:13:59.926Z,17.30
2022-11-23T22:16:28.878Z,16.67
2022-11-23T22:18:56.358Z,19.17
2022-11-23T22:21:25.287Z,16.57
2022-11-23T22:23:52.979Z,15.73
2022-11-23T22:26:20.641Z,18.10
2022-11-23T22:28:49.296Z,15.93
2022-11-23T22:31:18.838Z,17.30
2022-11-23T22:33:46.295Z,18.20
2022-11-23T22:36:15.065Z,16.27
2022-11-23T22:38:42.696Z,16.50
2022-11-23T22:41:11.770Z,16.83
2022-11-23T22:43:39.183Z,15.70
2022-11-23T22:46:08.512Z,15.23
2022-11-23T22:48:36.863Z,17.13
2022-11-23T22:51:04.374Z,17.83
2022-11-23T22:53:32.154Z,18.97
2022-11-23T22:56:04.150Z,18.97
2022-11-23T22:58:31.966Z,20.23
2022-11-23T23:01:09.219Z,18.57
2022-11-23T23:03:36.928Z,18.23
2022-11-23T23:06:04.476Z,22.20
2022-11-23T23:08:32.114Z,21.93
2022-11-23T23:11:06.539Z,20.40
2022-11-23T23:13:34.605Z,18.77
2022-11-23T23:16:03.237Z,19.70
2022-11-23T23:18:31.956Z,21.03
2022-11-23T23:21:04.103Z,21.33
2022-11-23T23:23:33.037Z,21.40
2022-11-23T23:26:00.370Z,20.73
2022-11-23T23:28:27.725Z,21.60
2022-11-23T23:31:04.974Z,21.63
2022-11-23T23:33:33.410Z,21.40
2022-11-23T23:36:05.393Z,20.60
2022-11-23T23:38:33.011Z,22.17
2022-11-23T23:41:00.998Z,22.10
2022-11-23T23:43:28.953Z,20.80
2022-11-23T23:46:01.327Z,21.83
2022-11-23T23:48:29.649Z,22.80
2022-11-23T23:50:56.989Z,21.00
2022-11-23T23:53:24.423Z,21.53
2022-11-23T23:55:58.993Z,20.10
2022-11-23T23:58:26.406Z,22.70
